KHOU/HOU METAR and TAF weather

Enter ICAO airport designator
Station Type Date Time Source
KHOU METAR 2021/07/30 07:53 UTC NOAA

KHOU 300753Z 00000KT 10SM FEW035 BKN250 28/24 A3001 RMK AO2 SLP164 T02830244


Station Type Date Time Source
KHOU Decoded METAR 2021/07/30 07:53 UTC NOAA

HOUSTON HOBBY AIRPORT, TX, United States (KHOU) 29-38N 095-17W 36M
Jul 30, 2021 - 03:53 AM EDT / 2021.07.30 0753 UTC
Wind: Calm:0
Visibility: 10 mile(s):0
Sky conditions: mostly cloudy
Temperature: 82.9 F (28.3 C)
Dew Point: 75.9 F (24.4 C)
Relative Humidity: 79%
Pressure (altimeter): 30.01 in. Hg (1016 hPa)
ob: KHOU 300753Z 00000KT 10SM FEW035 BKN250 28/24 A3001 RMK AO2 SLP164 T02830244
cycle: 8

Station Type Date Time Source
KHOU TAF 2021/07/30 06:22 UTC NOAA

TAF KHOU 300520Z 3006/3106 VRB03KT P6SM BKN070 OVC250
FM301600 12006KT P6SM SCT040 BKN250
FM302000 14007KT P6SM VCTS SCT035CB SCT250
FM310300 VRB03KT P6SM FEW040 SCT250

Example: see airport list